Time;durP1;ratioP1;P1;durP2;ratioP2;P2;SDS_P1;SDS_P2;PMS_P1;PMS_P2;Temp;Humidity;BMP_temperature;BMP_pressure;BME280_temperature;BME280_humidity;BME280_pressure;Samples;Min_cycle;Max_cycle;Signal;HPM_P1;HPM_P2
2024/02/07 05:16:20;;;;;;;0.30;0.30;;;9.30;99.90;;;;;;4880819;29;20203;-72
2024/02/07 05:18:46;;;;;;;0.30;0.30;;;9.30;99.90;;;;;;4879651;29;20180;-73
2024/02/07 05:21:12;;;;;;;0.43;0.43;;;9.30;99.90;;;;;;4880694;29;20171;-72
2024/02/07 05:23:41;;;;;;;0.30;0.30;;;9.30;99.90;;;;;;4880834;29;20205;-72
2024/02/07 05:26:08;;;;;;;0.30;0.30;;;9.30;99.90;;;;;;4880529;29;20204;-72
2024/02/07 05:28:34;;;;;;;0.30;0.30;;;9.30;99.90;;;;;;4879689;29;20176;-73
2024/02/07 05:30:59;;;;;;;0.30;0.30;;;9.30;99.90;;;;;;4880819;29;20171;-70
2024/02/07 05:33:25;;;;;;;0.40;0.40;;;9.30;99.90;;;;;;4881138;29;20183;-74
2024/02/07 05:35:51;;;;;;;0.30;0.30;;;9.20;99.90;;;;;;4879300;29;20200;-73
2024/02/07 05:38:16;;;;;;;0.30;0.30;;;9.30;99.90;;;;;;4879656;29;20179;-72
2024/02/07 05:40:42;;;;;;;0.40;0.40;;;9.30;99.90;;;;;;4880654;29;20194;-72
2024/02/07 05:43:08;;;;;;;0.30;0.30;;;9.30;99.90;;;;;;4879357;29;20219;-73
2024/02/07 05:45:33;;;;;;;0.30;0.30;;;9.30;99.90;;;;;;4880457;29;20439;-73
2024/02/07 05:48:00;;;;;;;0.30;0.30;;;9.40;99.90;;;;;;4880597;29;20569;-72
2024/02/07 05:50:27;;;;;;;0.30;0.30;;;9.40;99.90;;;;;;4880804;29;20175;-72
2024/02/07 05:52:53;;;;;;;0.30;0.30;;;9.40;99.90;;;;;;4880607;29;20171;-73
2024/02/07 05:55:19;;;;;;;0.30;0.30;;;9.40;99.90;;;;;;4878770;29;20606;-72
2024/02/07 05:57:47;;;;;;;0.40;0.40;;;9.40;99.90;;;;;;4880511;29;20180;-73
2024/02/07 06:00:14;;;;;;;0.30;0.30;;;9.50;99.90;;;;;;4880334;29;20171;-71
2024/02/07 06:02:40;;;;;;;0.30;0.30;;;9.50;99.90;;;;;;4879117;29;20180;-73
2024/02/07 06:05:06;;;;;;;0.37;0.37;;;9.50;99.90;;;;;;4878608;29;20241;-73
2024/02/07 06:07:33;;;;;;;0.30;0.30;;;9.50;99.90;;;;;;4880141;29;20463;-72
2024/02/07 06:09:59;;;;;;;0.30;0.30;;;9.50;99.90;;;;;;4880146;29;20187;-71
2024/02/07 06:12:26;;;;;;;0.30;0.30;;;9.50;99.90;;;;;;4880200;29;20175;-72
2024/02/07 06:14:52;;;;;;;0.30;0.30;;;9.50;99.90;;;;;;4879615;29;20204;-70
2024/02/07 06:17:17;;;;;;;0.30;0.30;;;9.50;99.90;;;;;;4879535;29;20256;-71
2024/02/07 06:19:43;;;;;;;0.30;0.30;;;9.40;99.90;;;;;;4879661;29;20509;-69
2024/02/07 06:22:10;;;;;;;0.30;0.30;;;9.50;99.90;;;;;;4878562;29;20187;-69
2024/02/07 06:24:35;;;;;;;0.30;0.30;;;9.50;99.90;;;;;;4879312;29;20178;-69
2024/02/07 06:27:01;;;;;;;0.30;0.30;;;9.50;99.90;;;;;;4879636;29;20222;-71
2024/02/07 06:29:27;;;;;;;0.30;0.30;;;9.50;99.90;;;;;;4879787;29;20603;-68
2024/02/07 06:31:54;;;;;;;0.30;0.30;;;9.50;99.90;;;;;;4879642;29;20180;-73
2024/02/07 06:34:20;;;;;;;0.30;0.30;;;9.60;99.90;;;;;;4879264;29;20172;-73
2024/02/07 06:36:46;;;;;;;0.30;0.30;;;9.60;99.90;;;;;;4879548;29;20192;-71
2024/02/07 06:39:12;;;;;;;0.30;0.30;;;9.60;99.90;;;;;;4879689;29;20184;-72
2024/02/07 06:41:37;;;;;;;0.30;0.30;;;9.60;99.90;;;;;;4878835;29;20618;-71
2024/02/07 06:44:03;;;;;;;0.30;0.30;;;9.70;99.90;;;;;;4876968;29;20195;-72
2024/02/07 06:46:29;;;;;;;0.30;0.30;;;9.70;99.90;;;;;;4874951;29;20249;-70
2024/02/07 06:48:55;;;;;;;0.30;0.30;;;9.70;99.90;;;;;;4878253;29;20184;-69
2024/02/07 06:51:21;;;;;;;0.30;0.30;;;9.70;99.90;;;;;;4877797;29;20800;-70
2024/02/07 06:53:46;;;;;;;0.30;0.30;;;9.70;99.90;;;;;;4877101;29;20875;-70
2024/02/07 06:56:12;;;;;;;0.30;0.30;;;9.70;99.90;;;;;;4877744;29;20758;-71
2024/02/07 06:58:37;;;;;;;0.30;0.30;;;9.80;99.90;;;;;;4877634;29;20595;-70
2024/02/07 07:01:03;;;;;;;0.30;0.30;;;9.80;99.90;;;;;;4879171;29;20538;-71
2024/02/07 07:03:30;;;;;;;0.30;0.30;;;9.90;99.90;;;;;;4879347;29;20196;-68
2024/02/07 07:05:57;;;;;;;0.30;0.30;;;9.90;99.90;;;;;;4878574;29;20196;-70
2024/02/07 07:08:23;;;;;;;0.32;0.32;;;9.90;99.90;;;;;;4877367;29;20192;-71
2024/02/07 07:10:49;;;;;;;0.77;0.77;;;9.90;99.90;;;;;;4878718;29;20186;-73
2024/02/07 07:13:15;;;;;;;0.30;0.30;;;9.90;99.90;;;;;;4878060;29;20562;-72
2024/02/07 07:15:40;;;;;;;0.30;0.30;;;9.90;99.90;;;;;;4876627;29;20207;-71
2024/02/07 07:18:07;;;;;;;0.30;0.30;;;9.90;99.90;;;;;;4877691;29;20181;-71
2024/02/07 07:20:32;;;;;;;0.30;0.30;;;9.90;99.90;;;;;;4877530;29;20209;-71
2024/02/07 07:22:58;;;;;;;0.30;0.27;;;9.90;99.90;;;;;;4877633;29;20184;-69
2024/02/07 07:25:23;;;;;;;0.30;0.30;;;9.90;99.90;;;;;;4877180;29;20206;-67
2024/02/07 07:27:49;;;;;;;0.40;0.40;;;9.90;99.90;;;;;;4877741;29;20958;-70
2024/02/07 07:30:15;;;;;;;0.30;0.30;;;9.90;99.90;;;;;;4875870;29;20508;-72
2024/02/07 07:32:40;;;;;;;0.30;0.30;;;9.90;99.90;;;;;;4870160;29;20224;-71
2024/02/07 07:35:07;;;;;;;0.30;0.30;;;9.90;99.90;;;;;;4861260;29;20311;-70
2024/02/07 07:37:32;;;;;;;0.40;0.40;;;10.00;99.90;;;;;;4865361;29;20266;-70
2024/02/07 07:39:58;;;;;;;0.30;0.30;;;10.00;99.90;;;;;;4879060;29;20772;-70
2024/02/07 07:42:23;;;;;;;0.30;0.30;;;10.00;99.90;;;;;;4877777;29;20190;-71
2024/02/07 07:44:50;;;;;;;0.30;0.30;;;10.00;99.90;;;;;;4882549;29;20543;-71
2024/02/07 07:47:16;;;;;;;0.30;0.30;;;10.10;99.90;;;;;;4882491;29;20197;-68
2024/02/07 07:49:42;;;;;;;0.40;0.40;;;10.10;99.90;;;;;;4881265;29;20187;-71
2024/02/07 07:52:08;;;;;;;0.40;0.40;;;10.10;99.90;;;;;;4882194;29;20253;-73
2024/02/07 07:54:35;;;;;;;0.30;0.30;;;10.10;99.90;;;;;;4882097;29;20191;-69
2024/02/07 07:57:01;;;;;;;0.30;0.30;;;10.10;99.90;;;;;;4881019;29;20206;-73
2024/02/07 07:59:26;;;;;;;0.30;0.30;;;10.10;99.90;;;;;;4882354;29;20185;-73
2024/02/07 08:01:57;;;;;;;0.50;0.50;;;10.20;99.90;;;;;;4882194;29;20177;-75
2024/02/07 08:04:22;;;;;;;0.30;0.30;;;10.30;99.90;;;;;;4881877;29;20260;-70
2024/02/07 08:06:48;;;;;;;0.43;0.43;;;10.30;99.90;;;;;;4881855;29;20302;-72
2024/02/07 08:09:15;;;;;;;0.30;0.30;;;10.40;99.90;;;;;;4882123;29;20177;-71
2024/02/07 08:11:41;;;;;;;0.30;0.30;;;10.40;99.90;;;;;;4882305;29;20259;-74
2024/02/07 08:14:07;;;;;;;0.30;0.30;;;10.50;99.90;;;;;;4880169;29;20517;-73
2024/02/07 08:16:32;;;;;;;0.33;0.33;;;10.50;99.90;;;;;;4881777;29;20253;-75
2024/02/07 08:18:58;;;;;;;0.40;0.40;;;10.50;99.90;;;;;;4882159;29;20207;-73
2024/02/07 08:21:23;;;;;;;0.30;0.30;;;10.60;99.90;;;;;;4881997;29;20490;-74
2024/02/07 08:23:49;;;;;;;0.77;0.77;;;10.60;99.90;;;;;;4880772;29;20225;-72
2024/02/07 08:26:15;;;;;;;0.30;0.30;;;10.60;99.90;;;;;;4881374;29;20238;-71
2024/02/07 08:28:40;;;;;;;0.30;0.20;;;10.60;99.90;;;;;;4881901;29;20180;-74
2024/02/07 08:31:06;;;;;;;0.40;0.40;;;10.60;99.90;;;;;;4881967;29;20183;-70
2024/02/07 08:33:31;;;;;;;0.30;0.30;;;10.60;99.90;;;;;;4881705;29;20181;-70
2024/02/07 08:35:57;;;;;;;0.30;0.30;;;10.70;99.90;;;;;;4880262;29;20276;-70
2024/02/07 08:38:23;;;;;;;0.30;0.30;;;10.70;99.90;;;;;;4880092;29;20239;-69
2024/02/07 08:40:51;;;;;;;0.37;0.37;;;10.70;99.90;;;;;;4881501;29;20322;-69
2024/02/07 08:43:16;;;;;;;0.30;0.30;;;10.70;99.90;;;;;;4881268;29;20180;-70
2024/02/07 08:45:42;;;;;;;0.30;0.30;;;10.80;99.90;;;;;;4880798;29;20448;-72
2024/02/07 08:48:09;;;;;;;0.33;0.33;;;10.80;99.90;;;;;;4880421;29;20245;-70
2024/02/07 08:50:35;;;;;;;0.30;0.30;;;10.90;99.90;;;;;;4880162;29;20432;-71
2024/02/07 08:53:00;;;;;;;0.30;0.30;;;10.90;99.90;;;;;;4881432;29;20411;-72
2024/02/07 08:55:26;;;;;;;0.30;0.23;;;11.00;99.90;;;;;;4877994;29;20203;-70
2024/02/07 08:57:52;;;;;;;1.13;1.13;;;11.00;99.90;;;;;;4878275;29;20537;-71
2024/02/07 09:00:17;;;;;;;0.33;0.33;;;11.10;99.90;;;;;;4880333;29;20324;-71
2024/02/07 09:02:49;;;;;;;0.30;0.30;;;11.20;99.90;;;;;;4880274;29;20268;-72
2024/02/07 09:05:16;;;;;;;0.30;0.30;;;11.20;99.90;;;;;;4880743;29;20855;-69
2024/02/07 09:07:41;;;;;;;0.30;0.30;;;11.20;99.90;;;;;;4880929;29;20477;-68
2024/02/07 09:10:07;;;;;;;0.30;0.30;;;11.20;99.90;;;;;;4881316;29;20730;-70
2024/02/07 09:12:33;;;;;;;0.67;0.67;;;11.20;99.90;;;;;;4879902;29;20186;-67
2024/02/07 09:15:00;;;;;;;0.30;0.20;;;11.20;99.90;;;;;;4880364;29;20434;-68
2024/02/07 09:17:25;;;;;;;0.30;0.23;;;11.20;99.90;;;;;;4879655;29;20590;-70
2024/02/07 09:19:52;;;;;;;1.90;0.97;;;11.30;99.90;;;;;;4879168;29;20443;-71
2024/02/07 09:22:18;;;;;;;0.80;0.53;;;11.30;99.90;;;;;;4878177;29;20218;-66
2024/02/07 09:24:44;;;;;;;0.30;0.30;;;11.30;99.90;;;;;;4877510;29;20493;-65
2024/02/07 09:27:09;;;;;;;0.30;0.30;;;11.40;99.90;;;;;;4864153;29;20211;-65
2024/02/07 09:29:38;;;;;;;0.30;0.30;;;11.50;99.90;;;;;;4866801;29;20225;-64
2024/02/07 09:32:04;;;;;;;0.30;0.30;;;11.50;99.90;;;;;;4880582;29;20179;-65
2024/02/07 09:34:29;;;;;;;0.30;0.20;;;11.60;99.90;;;;;;4876813;29;20585;-73
2024/02/07 09:36:55;;;;;;;0.30;0.30;;;11.70;99.90;;;;;;4878743;29;20684;-72
2024/02/07 09:39:22;;;;;;;0.30;0.30;;;11.80;99.90;;;;;;4878766;29;20183;-70
2024/02/07 09:41:49;;;;;;;0.30;0.30;;;11.80;99.90;;;;;;4878104;29;20183;-71
2024/02/07 09:44:18;;;;;;;0.30;0.30;;;11.90;99.90;;;;;;4878829;29;20979;-70
2024/02/07 09:46:45;;;;;;;0.30;0.30;;;11.90;99.90;;;;;;4877748;29;20591;-70
2024/02/07 09:49:13;;;;;;;0.30;0.30;;;11.90;99.90;;;;;;4877886;29;20428;-69
2024/02/07 09:51:42;;;;;;;0.30;0.30;;;11.90;99.90;;;;;;4880541;29;20419;-71
2024/02/07 09:54:12;;;;;;;0.30;0.20;;;11.80;99.90;;;;;;4880204;29;20510;-69
2024/02/07 09:56:39;;;;;;;0.30;0.20;;;11.80;99.90;;;;;;4878915;29;20631;-70
2024/02/07 09:59:06;;;;;;;0.30;0.30;;;11.70;99.90;;;;;;4878389;29;20445;-68
2024/02/07 10:01:34;;;;;;;0.30;0.20;;;11.80;99.90;;;;;;4880662;29;20424;-70
2024/02/07 10:04:01;;;;;;;0.30;0.30;;;11.70;99.90;;;;;;4879296;29;20546;-71
2024/02/07 10:06:27;;;;;;;0.30;0.30;;;11.80;99.90;;;;;;4879222;29;20555;-71
2024/02/07 10:08:55;;;;;;;0.30;0.30;;;11.80;99.90;;;;;;4877413;29;20447;-71
2024/02/07 10:11:25;;;;;;;0.30;0.20;;;11.80;99.90;;;;;;4877784;29;20442;-72
2024/02/07 10:13:51;;;;;;;0.30;0.30;;;11.90;99.90;;;;;;4879671;29;20411;-70
2024/02/07 10:16:17;;;;;;;0.40;0.40;;;11.90;99.90;;;;;;4877423;29;20459;-71
2024/02/07 10:18:44;;;;;;;0.30;0.30;;;12.00;99.90;;;;;;4872285;29;20176;-71
2024/02/07 10:21:11;;;;;;;0.30;0.30;;;12.00;99.90;;;;;;4877507;29;20482;-71
2024/02/07 10:23:37;;;;;;;0.30;0.30;;;12.10;99.90;;;;;;4880123;29;20430;-70
2024/02/07 10:26:02;;;;;;;0.30;0.20;;;12.30;99.90;;;;;;4878177;29;20961;-70
2024/02/07 10:28:30;;;;;;;0.30;0.30;;;12.40;99.90;;;;;;4880403;29;20172;-71
2024/02/07 10:31:03;;;;;;;0.30;0.20;;;12.50;99.90;;;;;;4879468;29;20167;-69
2024/02/07 10:33:44;;;;;;;0.30;0.20;;;12.60;99.90;;;;;;4878953;29;20411;-70
2024/02/07 10:36:10;;;;;;;0.30;0.30;;;12.60;99.90;;;;;;4877715;29;20459;-68
2024/02/07 10:38:36;;;;;;;0.30;0.20;;;12.70;99.90;;;;;;4879518;29;20478;-68
2024/02/07 10:41:02;;;;;;;0.30;0.30;;;12.70;99.90;;;;;;4878269;29;20412;-68
2024/02/07 10:43:38;;;;;;;0.33;0.33;;;12.70;99.90;;;;;;4879550;29;20547;-68
2024/02/07 10:46:07;;;;;;;0.30;0.30;;;12.70;99.90;;;;;;4877799;29;20531;-68
2024/02/07 10:48:34;;;;;;;0.30;0.20;;;12.80;99.90;;;;;;4879558;29;20427;-68
2024/02/07 10:51:02;;;;;;;0.30;0.30;;;12.70;99.90;;;;;;4874302;29;20534;-68
2024/02/07 10:53:31;;;;;;;0.30;0.20;;;12.70;99.90;;;;;;4875929;29;20447;-69
2024/02/07 10:55:59;;;;;;;0.40;0.40;;;12.60;99.90;;;;;;4876703;29;20464;-69
2024/02/07 10:58:26;;;;;;;0.30;0.30;;;12.60;99.90;;;;;;4876572;29;20444;-70
2024/02/07 11:00:52;;;;;;;0.30;0.30;;;12.50;99.90;;;;;;4879320;29;20424;-67
2024/02/07 11:03:20;;;;;;;0.50;0.50;;;12.40;99.90;;;;;;4878413;29;20791;-71
2024/02/07 11:05:47;;;;;;;0.30;0.20;;;12.40;99.90;;;;;;4874637;29;20441;-71
2024/02/07 11:08:13;;;;;;;0.30;0.30;;;12.40;99.90;;;;;;4876238;29;21737;-69
2024/02/07 11:10:40;;;;;;;0.30;0.30;;;12.40;99.90;;;;;;4877830;29;20431;-70
2024/02/07 11:13:11;;;;;;;0.30;0.20;;;12.30;99.90;;;;;;4878462;29;20538;-70
2024/02/07 11:15:37;;;;;;;0.30;0.30;;;12.40;99.90;;;;;;4878997;29;20456;-69
2024/02/07 11:18:05;;;;;;;0.30;0.30;;;12.30;99.90;;;;;;4877430;29;20422;-69
2024/02/07 11:20:31;;;;;;;0.30;0.27;;;12.20;99.90;;;;;;4872957;29;20463;-69
2024/02/07 11:23:00;;;;;;;0.30;0.30;;;12.20;99.90;;;;;;4874624;29;20522;-66
2024/02/07 11:25:27;;;;;;;0.30;0.20;;;12.30;99.90;;;;;;4865907;29;20475;-75
2024/02/07 11:27:55;;;;;;;0.30;0.30;;;12.30;99.90;;;;;;4864986;29;20474;-69
2024/02/07 11:30:22;;;;;;;0.30;0.30;;;12.40;99.90;;;;;;4871980;29;20425;-71
2024/02/07 11:32:51;;;;;;;0.30;0.30;;;12.40;99.90;;;;;;4878303;29;20457;-71
2024/02/07 11:35:22;;;;;;;0.30;0.30;;;12.50;99.90;;;;;;4877451;29;20417;-71
2024/02/07 11:37:51;;;;;;;0.30;0.30;;;12.50;99.90;;;;;;4878301;29;20538;-70
2024/02/07 11:40:18;;;;;;;0.30;0.30;;;12.60;99.90;;;;;;4876474;29;20435;-70
2024/02/07 11:42:44;;;;;;;0.30;0.30;;;12.60;99.90;;;;;;4878168;29;20447;-70
2024/02/07 11:45:14;;;;;;;0.30;0.20;;;12.60;99.90;;;;;;4877767;29;20961;-69
2024/02/07 11:47:42;;;;;;;0.30;0.20;;;12.60;99.90;;;;;;4877872;29;20554;-70
2024/02/07 11:50:12;;;;;;;0.30;0.20;;;12.60;99.90;;;;;;4878411;29;20457;-69
2024/02/07 11:52:43;;;;;;;0.30;0.30;;;12.70;99.90;;;;;;4876525;29;20498;-69
2024/02/07 11:55:10;;;;;;;0.30;0.30;;;12.70;99.90;;;;;;4876184;29;20446;-76
2024/02/07 11:57:42;;;;;;;0.30;0.20;;;12.70;99.90;;;;;;4878738;29;20416;-69
2024/02/07 12:00:12;;;;;;;0.30;0.20;;;12.70;99.90;;;;;;4876410;29;20515;-69
2024/02/07 12:02:45;;;;;;;0.30;0.30;;;12.80;99.90;;;;;;4877445;29;20451;-70
2024/02/07 12:05:14;;;;;;;0.30;0.30;;;12.80;99.90;;;;;;4876375;29;20435;-69
2024/02/07 12:07:40;;;;;;;0.30;0.30;;;12.90;99.90;;;;;;4878529;29;20562;-67
2024/02/07 12:10:08;;;;;;;0.30;0.20;;;12.90;99.90;;;;;;4875465;29;20436;-69
2024/02/07 12:12:34;;;;;;;0.30;0.20;;;12.90;99.90;;;;;;4876018;29;20495;-68
2024/02/07 12:14:59;;;;;;;0.30;0.30;;;12.80;99.90;;;;;;4877812;29;20444;-67
2024/02/07 12:17:25;;;;;;;2.20;0.70;;;12.90;99.90;;;;;;4875354;29;20215;-68
2024/02/07 12:19:51;;;;;;;0.30;0.30;;;12.90;99.90;;;;;;4877948;29;20243;-69
2024/02/07 12:22:18;;;;;;;0.30;0.30;;;12.90;99.90;;;;;;4863075;29;20441;-68
2024/02/07 12:24:44;;;;;;;0.40;0.40;;;13.00;99.90;;;;;;4876224;29;20522;-68
2024/02/07 12:27:15;;;;;;;0.30;0.30;;;13.00;99.90;;;;;;4872946;29;20476;-68
2024/02/07 12:29:54;;;;;;;0.33;0.33;;;13.00;99.90;;;;;;4870570;29;20913;-68
2024/02/07 12:32:21;;;;;;;0.30;0.20;;;13.00;99.90;;;;;;4873333;29;20467;-74
2024/02/07 12:34:47;;;;;;;0.80;0.80;;;13.00;99.90;;;;;;4870030;29;20442;-66
2024/02/07 12:37:18;;;;;;;0.30;0.30;;;12.90;99.90;;;;;;4880250;29;20471;-67
2024/02/07 12:39:47;;;;;;;0.30;0.20;;;12.90;99.90;;;;;;4881479;29;20435;-68
2024/02/07 12:42:14;;;;;;;0.30;0.27;;;12.80;99.90;;;;;;4874266;29;20912;-68
2024/02/07 12:44:40;;;;;;;0.30;0.20;;;12.80;99.90;;;;;;4878938;29;21056;-67
2024/02/07 12:47:07;;;;;;;0.30;0.30;;;12.80;99.90;;;;;;4880750;29;20527;-68
2024/02/07 12:49:32;;;;;;;0.30;0.30;;;12.80;99.90;;;;;;4880720;29;20485;-69
2024/02/07 12:51:58;;;;;;;0.30;0.20;;;12.80;99.90;;;;;;4878989;29;20419;-69
2024/02/07 12:54:26;;;;;;;0.30;0.30;;;12.80;99.90;;;;;;4881170;29;20214;-68
2024/02/07 12:56:55;;;;;;;0.30;0.20;;;12.80;99.90;;;;;;4880905;29;20511;-69
2024/02/07 12:59:32;;;;;;;0.30;0.30;;;12.80;99.90;;;;;;4880476;29;20455;-67
2024/02/07 13:02:01;;;;;;;0.30;0.30;;;12.80;99.90;;;;;;4880819;29;20949;-68
2024/02/07 13:04:31;;;;;;;0.30;0.20;;;12.80;99.90;;;;;;4877612;29;20440;-66
2024/02/07 13:07:18;;;;;;;0.30;0.30;;;12.80;99.90;;;;;;4879509;29;20970;-69
2024/02/07 13:09:44;;;;;;;0.30;0.30;;;12.70;99.90;;;;;;4868113;29;20193;-67
2024/02/07 13:12:09;;;;;;;0.30;0.20;;;12.70;99.90;;;;;;4880699;29;20471;-67
2024/02/07 13:14:38;;;;;;;0.30;0.30;;;12.70;99.90;;;;;;4880941;29;20179;-69
2024/02/07 13:17:03;;;;;;;0.30;0.20;;;12.70;99.90;;;;;;4880683;29;20562;-66
2024/02/07 13:19:29;;;;;;;0.30;0.30;;;12.70;99.90;;;;;;4878997;29;20428;-67
2024/02/07 13:21:55;;;;;;;0.30;0.20;;;12.60;99.90;;;;;;4879788;29;20234;-67
2024/02/07 13:24:20;;;;;;;0.30;0.30;;;12.60;99.90;;;;;;4879096;29;20202;-72
2024/02/07 13:26:52;;;;;;;0.30;0.30;;;12.50;99.90;;;;;;4865448;29;20230;-68
2024/02/07 13:29:20;;;;;;;0.30;0.20;;;12.40;99.90;;;;;;4866023;29;20718;-66
2024/02/07 13:31:45;;;;;;;0.30;0.30;;;12.40;99.90;;;;;;4881070;29;20415;-66
2024/02/07 13:34:13;;;;;;;0.30;0.30;;;12.40;99.90;;;;;;4881086;29;20922;-67
2024/02/07 13:36:39;;;;;;;0.30;0.30;;;12.30;99.90;;;;;;4879365;29;20237;-65
2024/02/07 13:39:05;;;;;;;0.30;0.30;;;12.20;99.90;;;;;;4885988;29;20435;-64
2024/02/07 13:41:31;;;;;;;0.30;0.30;;;12.30;99.90;;;;;;4888960;29;20174;-65
2024/02/07 13:43:58;;;;;;;0.40;0.40;;;12.20;99.90;;;;;;4888423;29;20422;-70
2024/02/07 13:46:24;;;;;;;0.30;0.30;;;12.20;99.90;;;;;;4888965;29;20467;-69
2024/02/07 13:48:50;;;;;;;0.30;0.23;;;12.20;99.90;;;;;;4868725;29;20458;-64
2024/02/07 13:51:16;;;;;;;0.30;0.30;;;12.20;99.90;;;;;;4871907;29;20416;-69
2024/02/07 13:53:41;;;;;;;0.30;0.30;;;12.20;99.90;;;;;;4886031;29;20529;-70
2024/02/07 13:56:07;;;;;;;0.30;0.20;;;12.20;99.90;;;;;;4881386;29;20213;-68
2024/02/07 13:58:33;;;;;;;0.30;0.20;;;12.20;99.90;;;;;;4869883;29;20231;-67
2024/02/07 14:00:58;;;;;;;0.30;0.30;;;12.20;99.90;;;;;;4861629;29;20184;-66
2024/02/07 14:03:25;;;;;;;0.37;0.37;;;12.20;99.90;;;;;;4874940;29;20194;-66
2024/02/07 14:05:51;;;;;;;0.30;0.30;;;12.20;99.90;;;;;;4878899;29;20689;-65
2024/02/07 14:08:18;;;;;;;0.30;0.30;;;12.20;99.90;;;;;;4861303;29;20975;-67
2024/02/07 14:10:43;;;;;;;0.30;0.30;;;12.10;99.90;;;;;;4881850;29;20463;-66
2024/02/07 14:13:10;;;;;;;0.30;0.20;;;12.20;99.90;;;;;;4881462;29;20438;-65
2024/02/07 14:15:36;;;;;;;0.30;0.30;;;12.20;99.90;;;;;;4880737;29;20211;-67
2024/02/07 14:18:04;;;;;;;0.30;0.30;;;12.10;99.90;;;;;;4876759;29;20440;-69
2024/02/07 14:20:32;;;;;;;0.40;0.40;;;12.10;99.90;;;;;;4879430;29;20446;-68
2024/02/07 14:22:58;;;;;;;0.30;0.30;;;12.10;99.90;;;;;;4879863;29;20411;-65
2024/02/07 14:25:24;;;;;;;0.30;0.20;;;12.10;99.90;;;;;;4878239;29;20506;-73
2024/02/07 14:27:49;;;;;;;0.30;0.30;;;12.10;99.90;;;;;;4878840;29;20223;-68
2024/02/07 14:30:16;;;;;;;0.30;0.30;;;12.10;99.90;;;;;;4878528;29;20186;-69
2024/02/07 14:32:42;;;;;;;0.30;0.30;;;12.00;99.90;;;;;;4878836;29;20219;-71
2024/02/07 14:35:08;;;;;;;0.30;0.30;;;12.00;99.90;;;;;;4879509;29;20430;-68
2024/02/07 14:37:38;;;;;;;0.30;0.30;;;11.90;99.90;;;;;;4878082;29;20904;-69
2024/02/07 14:40:04;;;;;;;0.30;0.30;;;11.90;99.90;;;;;;4878900;29;20443;-68
2024/02/07 14:42:31;;;;;;;0.37;0.37;;;11.90;99.90;;;;;;4877470;29;20439;-70
2024/02/07 14:44:56;;;;;;;0.57;0.57;;;11.90;99.90;;;;;;4878907;29;20442;-72
2024/02/07 14:47:22;;;;;;;0.50;0.50;;;11.90;99.90;;;;;;4878028;29;20486;-72
2024/02/07 14:49:48;;;;;;;0.30;0.27;;;11.90;99.90;;;;;;4879466;29;20214;-70
2024/02/07 14:52:13;;;;;;;0.30;0.20;;;11.90;99.90;;;;;;4878790;29;20183;-69
2024/02/07 14:54:39;;;;;;;0.30;0.30;;;11.90;99.90;;;;;;4877555;29;20197;-71
2024/02/07 14:57:05;;;;;;;0.30;0.20;;;11.90;99.90;;;;;;4879925;29;20202;-69
2024/02/07 14:59:30;;;;;;;0.30;0.30;;;11.80;99.90;;;;;;4877421;29;20209;-70
2024/02/07 15:01:56;;;;;;;0.30;0.30;;;11.80;99.90;;;;;;4878562;29;20474;-70
2024/02/07 15:04:21;;;;;;;0.30;0.30;;;11.80;99.90;;;;;;4878155;29;20183;-70
2024/02/07 15:06:47;;;;;;;0.40;0.40;;;11.80;99.90;;;;;;4877330;29;20243;-70
2024/02/07 15:09:13;;;;;;;0.30;0.20;;;11.80;99.90;;;;;;4877581;29;20244;-70
2024/02/07 15:11:39;;;;;;;0.30;0.30;;;11.70;99.90;;;;;;4878801;29;20656;-70
2024/02/07 15:14:05;;;;;;;0.30;0.30;;;11.70;99.90;;;;;;4877915;29;20431;-68
2024/02/07 15:16:31;;;;;;;0.30;0.30;;;11.60;99.90;;;;;;4878814;29;20285;-70
2024/02/07 15:18:57;;;;;;;0.30;0.30;;;11.60;99.90;;;;;;4876856;29;20834;-70
2024/02/07 15:21:23;;;;;;;0.30;0.30;;;11.60;99.90;;;;;;4878714;29;20854;-71
2024/02/07 15:23:49;;;;;;;0.30;0.30;;;11.60;99.90;;;;;;4878417;29;20437;-70
2024/02/07 15:26:15;;;;;;;0.30;0.30;;;11.50;99.90;;;;;;4877946;29;20689;-70
2024/02/07 15:28:40;;;;;;;0.30;0.30;;;11.50;99.90;;;;;;4876763;29;20547;-71
2024/02/07 15:31:07;;;;;;;0.30;0.30;;;11.40;99.90;;;;;;4878879;29;20269;-72
2024/02/07 15:33:34;;;;;;;0.30;0.27;;;11.40;99.90;;;;;;4877524;29;20186;-69
2024/02/07 15:36:09;;;;;;;0.30;0.30;;;11.40;99.90;;;;;;4877458;29;20462;-68
2024/02/07 15:38:35;;;;;;;0.30;0.30;;;11.40;99.90;;;;;;4872255;29;20408;-69
2024/02/07 15:41:01;;;;;;;0.30;0.30;;;11.30;99.90;;;;;;4875779;29;20442;-69
2024/02/07 15:43:30;;;;;;;0.30;0.30;;;11.30;99.90;;;;;;4876924;29;20196;-71
2024/02/07 15:45:57;;;;;;;0.30;0.20;;;11.30;99.90;;;;;;4878053;29;20457;-69
2024/02/07 15:48:23;;;;;;;0.30;0.30;;;11.30;99.90;;;;;;4875682;29;20573;-69
2024/02/07 15:50:49;;;;;;;0.30;0.30;;;11.30;99.90;;;;;;4875190;29;20842;-70
2024/02/07 15:53:14;;;;;;;0.30;0.30;;;11.30;99.90;;;;;;4869172;29;20519;-73
2024/02/07 15:55:41;;;;;;;0.30;0.30;;;11.30;99.90;;;;;;4871656;29;20741;-70
2024/02/07 15:58:07;;;;;;;0.50;0.50;;;11.30;99.90;;;;;;4877608;29;20197;-73
2024/02/07 16:00:33;;;;;;;0.30;0.30;;;11.30;99.90;;;;;;4877098;29;20426;-69
2024/02/07 16:02:59;;;;;;;0.60;0.60;;;11.30;99.90;;;;;;4877447;29;20413;-70
2024/02/07 16:05:25;;;;;;;0.30;0.30;;;11.20;99.90;;;;;;4880252;29;20618;-71
2024/02/07 16:07:51;;;;;;;0.30;0.30;;;11.20;99.90;;;;;;4880992;29;20472;-73
2024/02/07 16:10:17;;;;;;;0.30;0.30;;;11.10;99.90;;;;;;4881930;29;20817;-72
2024/02/07 16:12:43;;;;;;;0.30;0.30;;;11.10;99.90;;;;;;4882226;29;20266;-73
2024/02/07 16:15:09;;;;;;;0.30;0.20;;;11.00;99.90;;;;;;4881680;29;20524;-71
2024/02/07 16:17:35;;;;;;;0.30;0.30;;;10.90;99.90;;;;;;4880601;29;20465;-71
2024/02/07 16:20:01;;;;;;;0.30;0.30;;;10.90;99.90;;;;;;4880180;29;20197;-72
2024/02/07 16:22:26;;;;;;;0.30;0.30;;;10.80;99.90;;;;;;4882260;29;20176;-71
2024/02/07 16:24:52;;;;;;;0.30;0.30;;;10.70;99.90;;;;;;4879738;29;20195;-73
2024/02/07 16:27:18;;;;;;;0.30;0.30;;;10.60;99.90;;;;;;4880235;29;20228;-70
2024/02/07 16:29:44;;;;;;;0.30;0.30;;;10.50;99.90;;;;;;4876359;29;20804;-73
2024/02/07 16:32:09;;;;;;;0.30;0.30;;;10.50;99.90;;;;;;4863912;29;20178;-71
2024/02/07 16:34:35;;;;;;;0.30;0.30;;;10.40;99.90;;;;;;4877789;29;20200;-69
2024/02/07 16:37:01;;;;;;;0.30;0.30;;;10.30;99.90;;;;;;4882327;29;20197;-70
2024/02/07 16:39:26;;;;;;;0.30;0.30;;;10.30;99.90;;;;;;4879822;29;20184;-71
2024/02/07 16:41:52;;;;;;;0.40;0.40;;;10.30;99.90;;;;;;4880726;29;20620;-70
2024/02/07 16:44:17;;;;;;;0.30;0.20;;;10.20;99.90;;;;;;4880939;29;20271;-71
2024/02/07 16:46:43;;;;;;;0.30;0.30;;;10.20;99.90;;;;;;4881177;29;20200;-69
2024/02/07 16:49:09;;;;;;;0.50;0.50;;;10.20;99.90;;;;;;4881484;29;20588;-69
2024/02/07 16:51:34;;;;;;;0.30;0.30;;;10.10;99.90;;;;;;4880647;29;20239;-72
2024/02/07 16:54:00;;;;;;;0.30;0.30;;;10.10;99.90;;;;;;4881662;29;20259;-74
2024/02/07 16:56:29;;;;;;;0.30;0.30;;;10.10;99.90;;;;;;4881191;29;20193;-71
2024/02/07 16:58:55;;;;;;;0.30;0.30;;;10.00;99.90;;;;;;4881420;29;20192;-69
2024/02/07 17:01:25;;;;;;;0.30;0.30;;;10.00;99.90;;;;;;4881497;29;20204;-74
2024/02/07 17:03:52;;;;;;;0.30;0.30;;;10.00;99.90;;;;;;4881587;29;20491;-70
2024/02/07 17:06:19;;;;;;;0.30;0.30;;;10.00;99.90;;;;;;4877300;29;20204;-71
2024/02/07 17:08:45;;;;;;;0.30;0.30;;;9.90;99.90;;;;;;4879530;29;20189;-70
2024/02/07 17:11:11;;;;;;;0.30;0.30;;;9.90;99.90;;;;;;4879779;29;20183;-70
2024/02/07 17:13:37;;;;;;;0.30;0.30;;;9.90;99.90;;;;;;4881218;29;20515;-72
2024/02/07 17:16:02;;;;;;;0.30;0.30;;;9.90;99.90;;;;;;4878066;29;20204;-71
2024/02/07 17:18:28;;;;;;;0.30;0.30;;;9.90;99.90;;;;;;4880887;29;20547;-71
2024/02/07 17:20:54;;;;;;;0.30;0.30;;;9.80;99.90;;;;;;4880577;29;20223;-72
2024/02/07 17:23:20;;;;;;;0.30;0.30;;;9.80;99.90;;;;;;4878554;29;20913;-71
2024/02/07 17:25:46;;;;;;;0.30;0.30;;;9.80;99.90;;;;;;4879955;29;20436;-73
2024/02/07 17:28:13;;;;;;;0.30;0.30;;;9.80;99.90;;;;;;4878524;29;20476;-73
2024/02/07 17:30:39;;;;;;;0.30;0.30;;;9.80;99.90;;;;;;4879473;29;20188;-75
2024/02/07 17:33:05;;;;;;;0.30;0.30;;;9.80;99.90;;;;;;4879833;29;20190;-75
2024/02/07 17:35:32;;;;;;;0.30;0.30;;;9.80;99.90;;;;;;4880554;29;20200;-74
2024/02/07 17:37:58;;;;;;;0.30;0.30;;;9.90;99.90;;;;;;4880174;29;20655;-73
2024/02/07 17:40:23;;;;;;;0.30;0.30;;;9.90;99.90;;;;;;4880511;29;20195;-73
2024/02/07 17:42:49;;;;;;;0.37;0.37;;;9.90;99.90;;;;;;4880772;29;21043;-73
2024/02/07 17:45:17;;;;;;;0.30;0.30;;;9.90;99.90;;;;;;4880369;29;20251;-69
2024/02/07 17:47:44;;;;;;;0.30;0.30;;;9.90;99.90;;;;;;4880462;29;20621;-69
2024/02/07 17:50:10;;;;;;;0.30;0.30;;;10.00;99.90;;;;;;4880440;29;20249;-68
2024/02/07 17:52:36;;;;;;;0.68;0.68;;;10.00;99.90;;;;;;4880993;29;20585;-68
2024/02/07 17:55:02;;;;;;;0.30;0.30;;;10.00;99.90;;;;;;4879917;29;20208;-70
2024/02/07 17:57:28;;;;;;;0.30;0.30;;;10.00;99.90;;;;;;4878602;29;20249;-67
2024/02/07 17:59:54;;;;;;;0.30;0.30;;;10.00;99.90;;;;;;4880835;29;20201;-67
2024/02/07 18:02:19;;;;;;;0.30;0.30;;;10.00;99.90;;;;;;4879426;29;20544;-67